Yukon, Oklahoma
Current Conditions -  °F | °C
As of 12:35 PM on Thursday 30 Oct 2014 (Local Time) from KRCE Reporting Station
Clear Clear  
Wind Chill: 72°   Ceiling: Unl
Heat Index: 72°   Visibility: NA
Dew Point: 45°   Wind: 12mph
Humidity: 38%   Direction: 340°NNW
Pressure: 30.17"   Gusts: 20mph
Location:  35.51°N, 97.74°W
Report Text: KRCE 301735Z AUTO 34010G17KT CLR 22/07 A3017 RMK AO2
Loading
Personal Weather Stations






























Interactive Weather Map
Tropical Storm Tracking
New forecast layout! Learn more

10-Day Weather Forecast

Advertisements
Track Severe Weather on mobile